LOWL/LNZ METAR and TAF weather

Enter ICAO airport designator
Station Type Date Time Source
LOWL METAR 2022/06/25 22:50 UTC NOAA

LOWL 252250Z AUTO VRB01KT 9999 NCD 17/15 Q1015


Station Type Date Time Source
LOWL Decoded METAR 2022/06/25 22:50 UTC NOAA

Linz / Hoersching-Flughafen, Austria (LOWL) 48-14N 014-11E 313M
Jun 25, 2022 - 06:50 PM EDT / 2022.06.25 2250 UTC
Wind: Variable at 1 MPH (1 KT):0
Visibility: greater than 7 mile(s):0
Temperature: 62 F (17 C)
Dew Point: 59 F (15 C)
Relative Humidity: 88%
Pressure (altimeter): 29.97 in. Hg (1015 hPa)
ob: LOWL 252250Z AUTO VRB01KT 9999 NCD 17/15 Q1015
cycle: 23

Station Type Date Time Source
LOWL TAF 2022/06/25 18:21 UTC NOAA

TAF LOWL 251715Z 2518/2618 VRB03KT CAVOK TX29/2615Z TN15/2603Z
BECMG 2608/2610 07006KT

Example: see airport list